sensor_id;sensor_type;location;lat;lon;timestamp;temperature;humidity
41437;DHT22;27178;49.460;10.850;2022-11-10T00:00:41;15.00;86.90
41437;DHT22;27178;49.460;10.850;2022-11-10T00:03:09;15.00;87.00
41437;DHT22;27178;49.460;10.850;2022-11-10T00:05:40;15.00;87.00
41437;DHT22;27178;49.460;10.850;2022-11-10T00:08:10;15.00;86.90
41437;DHT22;27178;49.460;10.850;2022-11-10T00:10:39;15.00;87.00
41437;DHT22;27178;49.460;10.850;2022-11-10T00:13:23;15.00;86.90
41437;DHT22;27178;49.460;10.850;2022-11-10T00:15:52;15.00;86.80
41437;DHT22;27178;49.460;10.850;2022-11-10T00:18:44;15.00;86.80
41437;DHT22;27178;49.460;10.850;2022-11-10T00:21:14;14.90;86.70
41437;DHT22;27178;49.460;10.850;2022-11-10T00:23:44;14.90;86.60
41437;DHT22;27178;49.460;10.850;2022-11-10T00:26:15;14.90;86.70
41437;DHT22;27178;49.460;10.850;2022-11-10T00:28:45;14.90;86.70
41437;DHT22;27178;49.460;10.850;2022-11-10T00:31:14;14.80;86.70
41437;DHT22;27178;49.460;10.850;2022-11-10T00:33:43;14.80;86.70
41437;DHT22;27178;49.460;10.850;2022-11-10T00:36:13;14.80;86.90
41437;DHT22;27178;49.460;10.850;2022-11-10T00:38:41;14.80;86.90
41437;DHT22;27178;49.460;10.850;2022-11-10T00:41:09;14.80;86.90
41437;DHT22;27178;49.460;10.850;2022-11-10T00:43:39;14.80;86.90
41437;DHT22;27178;49.460;10.850;2022-11-10T00:46:07;14.80;86.90
41437;DHT22;27178;49.460;10.850;2022-11-10T00:48:35;14.80;86.90
41437;DHT22;27178;49.460;10.850;2022-11-10T00:51:04;14.70;86.80
41437;DHT22;27178;49.460;10.850;2022-11-10T00:53:33;14.70;86.80
41437;DHT22;27178;49.460;10.850;2022-11-10T00:56:02;14.70;86.90
41437;DHT22;27178;49.460;10.850;2022-11-10T00:58:30;14.70;86.90
41437;DHT22;27178;49.460;10.850;2022-11-10T01:01:02;14.70;86.80
41437;DHT22;27178;49.460;10.850;2022-11-10T01:03:32;14.70;86.90
41437;DHT22;27178;49.460;10.850;2022-11-10T01:06:04;14.70;87.10
41437;DHT22;27178;49.460;10.850;2022-11-10T01:08:34;14.70;87.10
41437;DHT22;27178;49.460;10.850;2022-11-10T01:11:04;14.70;87.00
41437;DHT22;27178;49.460;10.850;2022-11-10T01:13:33;14.60;86.90
41437;DHT22;27178;49.460;10.850;2022-11-10T01:16:06;14.60;87.00
41437;DHT22;27178;49.460;10.850;2022-11-10T01:18:35;14.60;87.00
41437;DHT22;27178;49.460;10.850;2022-11-10T01:21:04;14.60;86.90
41437;DHT22;27178;49.460;10.850;2022-11-10T01:23:34;14.60;87.00
41437;DHT22;27178;49.460;10.850;2022-11-10T01:26:05;14.60;87.10
41437;DHT22;27178;49.460;10.850;2022-11-10T01:28:35;14.60;87.10
41437;DHT22;27178;49.460;10.850;2022-11-10T01:31:06;14.60;87.00
41437;DHT22;27178;49.460;10.850;2022-11-10T01:33:36;14.60;87.00
41437;DHT22;27178;49.460;10.850;2022-11-10T01:36:06;14.50;86.90
41437;DHT22;27178;49.460;10.850;2022-11-10T01:38:38;14.90;87.20
41437;DHT22;27178;49.460;10.850;2022-11-10T01:41:08;14.50;86.90
41437;DHT22;27178;49.460;10.850;2022-11-10T01:43:37;14.50;86.90
41437;DHT22;27178;49.460;10.850;2022-11-10T01:46:07;14.40;86.90
41437;DHT22;27178;49.460;10.850;2022-11-10T01:48:38;14.40;86.90
41437;DHT22;27178;49.460;10.850;2022-11-10T01:51:12;14.40;87.00
41437;DHT22;27178;49.460;10.850;2022-11-10T01:53:47;14.40;86.90
41437;DHT22;27178;49.460;10.850;2022-11-10T01:56:16;14.40;86.90
41437;DHT22;27178;49.460;10.850;2022-11-10T01:58:50;14.40;87.00
41437;DHT22;27178;49.460;10.850;2022-11-10T02:01:20;14.40;87.10
41437;DHT22;27178;49.460;10.850;2022-11-10T02:03:51;14.40;87.10
41437;DHT22;27178;49.460;10.850;2022-11-10T02:06:25;14.40;87.10
41437;DHT22;27178;49.460;10.850;2022-11-10T02:08:56;14.40;87.10
41437;DHT22;27178;49.460;10.850;2022-11-10T02:11:26;14.40;87.00
41437;DHT22;27178;49.460;10.850;2022-11-10T02:13:55;14.30;86.70
41437;DHT22;27178;49.460;10.850;2022-11-10T02:16:24;14.30;86.50
41437;DHT22;27178;49.460;10.850;2022-11-10T02:18:52;14.30;86.50
41437;DHT22;27178;49.460;10.850;2022-11-10T02:21:23;14.30;86.50
41437;DHT22;27178;49.460;10.850;2022-11-10T02:23:52;14.30;86.50
41437;DHT22;27178;49.460;10.850;2022-11-10T02:26:23;14.30;86.40
41437;DHT22;27178;49.460;10.850;2022-11-10T02:28:52;14.20;86.10
41437;DHT22;27178;49.460;10.850;2022-11-10T02:31:21;14.20;86.00
41437;DHT22;27178;49.460;10.850;2022-11-10T02:33:49;14.10;86.00
41437;DHT22;27178;49.460;10.850;2022-11-10T02:36:18;14.10;86.20
41437;DHT22;27178;49.460;10.850;2022-11-10T02:38:48;14.10;86.40
41437;DHT22;27178;49.460;10.850;2022-11-10T02:41:16;14.10;86.50
41437;DHT22;27178;49.460;10.850;2022-11-10T02:43:45;14.00;86.70
41437;DHT22;27178;49.460;10.850;2022-11-10T02:46:13;14.00;86.70
41437;DHT22;27178;49.460;10.850;2022-11-10T02:48:42;14.00;86.70
41437;DHT22;27178;49.460;10.850;2022-11-10T02:51:10;14.00;86.90
41437;DHT22;27178;49.460;10.850;2022-11-10T02:53:38;14.00;86.90
41437;DHT22;27178;49.460;10.850;2022-11-10T02:56:08;14.00;86.90
41437;DHT22;27178;49.460;10.850;2022-11-10T02:58:36;14.00;87.00
41437;DHT22;27178;49.460;10.850;2022-11-10T03:01:06;13.90;86.90
41437;DHT22;27178;49.460;10.850;2022-11-10T03:03:34;13.90;87.00
41437;DHT22;27178;49.460;10.850;2022-11-10T03:06:03;13.90;86.90
41437;DHT22;27178;49.460;10.850;2022-11-10T03:08:31;13.90;86.90
41437;DHT22;27178;49.460;10.850;2022-11-10T03:10:59;13.90;86.90
41437;DHT22;27178;49.460;10.850;2022-11-10T03:13:29;13.90;86.80
41437;DHT22;27178;49.460;10.850;2022-11-10T03:16:18;13.90;86.90
41437;DHT22;27178;49.460;10.850;2022-11-10T03:18:46;13.90;86.90
41437;DHT22;27178;49.460;10.850;2022-11-10T03:21:14;13.90;87.00
41437;DHT22;27178;49.460;10.850;2022-11-10T03:23:43;13.90;86.80
41437;DHT22;27178;49.460;10.850;2022-11-10T03:26:11;13.80;86.70
41437;DHT22;27178;49.460;10.850;2022-11-10T03:28:41;13.80;86.60
41437;DHT22;27178;49.460;10.850;2022-11-10T03:31:10;13.80;86.50
41437;DHT22;27178;49.460;10.850;2022-11-10T03:33:38;13.80;86.50
41437;DHT22;27178;49.460;10.850;2022-11-10T03:36:07;13.80;86.50
41437;DHT22;27178;49.460;10.850;2022-11-10T03:38:35;13.70;86.50
41437;DHT22;27178;49.460;10.850;2022-11-10T03:41:04;13.70;86.50
41437;DHT22;27178;49.460;10.850;2022-11-10T03:43:49;13.70;86.50
41437;DHT22;27178;49.460;10.850;2022-11-10T03:46:18;13.70;86.70
41437;DHT22;27178;49.460;10.850;2022-11-10T03:48:46;13.70;86.60
41437;DHT22;27178;49.460;10.850;2022-11-10T03:51:19;13.70;86.50
41437;DHT22;27178;49.460;10.850;2022-11-10T03:53:48;13.70;86.50
41437;DHT22;27178;49.460;10.850;2022-11-10T03:56:16;13.60;86.50
41437;DHT22;27178;49.460;10.850;2022-11-10T03:58:45;13.60;86.70
41437;DHT22;27178;49.460;10.850;2022-11-10T04:01:15;13.60;86.60
41437;DHT22;27178;49.460;10.850;2022-11-10T04:03:44;13.60;86.70
41437;DHT22;27178;49.460;10.850;2022-11-10T04:06:17;13.60;86.70
41437;DHT22;27178;49.460;10.850;2022-11-10T04:09:05;13.60;86.50
41437;DHT22;27178;49.460;10.850;2022-11-10T04:11:33;13.60;86.40
41437;DHT22;27178;49.460;10.850;2022-11-10T04:14:19;13.50;86.30
41437;DHT22;27178;49.460;10.850;2022-11-10T04:17:06;13.50;86.30
41437;DHT22;27178;49.460;10.850;2022-11-10T04:19:35;13.50;86.40
41437;DHT22;27178;49.460;10.850;2022-11-10T04:22:03;13.50;86.40
41437;DHT22;27178;49.460;10.850;2022-11-10T04:24:32;13.50;86.30
41437;DHT22;27178;49.460;10.850;2022-11-10T04:27:00;13.50;86.30
41437;DHT22;27178;49.460;10.850;2022-11-10T04:29:29;13.40;86.30
41437;DHT22;27178;49.460;10.850;2022-11-10T04:31:57;13.40;86.20
41437;DHT22;27178;49.460;10.850;2022-11-10T04:34:27;13.40;86.20
41437;DHT22;27178;49.460;10.850;2022-11-10T04:36:55;13.40;86.10
41437;DHT22;27178;49.460;10.850;2022-11-10T04:39:23;13.40;86.20
41437;DHT22;27178;49.460;10.850;2022-11-10T04:41:52;13.40;86.10
41437;DHT22;27178;49.460;10.850;2022-11-10T04:44:28;13.40;86.00
41437;DHT22;27178;49.460;10.850;2022-11-10T04:46:56;13.40;86.10
41437;DHT22;27178;49.460;10.850;2022-11-10T04:49:24;13.40;86.00
41437;DHT22;27178;49.460;10.850;2022-11-10T04:51:55;13.40;85.80
41437;DHT22;27178;49.460;10.850;2022-11-10T04:54:23;13.30;85.70
41437;DHT22;27178;49.460;10.850;2022-11-10T04:56:53;13.30;85.70
41437;DHT22;27178;49.460;10.850;2022-11-10T04:59:21;13.30;85.70
41437;DHT22;27178;49.460;10.850;2022-11-10T05:01:50;13.30;85.60
41437;DHT22;27178;49.460;10.850;2022-11-10T05:04:18;13.20;85.60
41437;DHT22;27178;49.460;10.850;2022-11-10T05:06:46;13.30;85.50
41437;DHT22;27178;49.460;10.850;2022-11-10T05:09:16;13.20;85.40
41437;DHT22;27178;49.460;10.850;2022-11-10T05:11:45;13.20;85.20
41437;DHT22;27178;49.460;10.850;2022-11-10T05:14:13;13.20;85.10
41437;DHT22;27178;49.460;10.850;2022-11-10T05:16:42;13.10;85.00
41437;DHT22;27178;49.460;10.850;2022-11-10T05:19:10;13.10;85.00
41437;DHT22;27178;49.460;10.850;2022-11-10T05:21:38;13.10;85.10
41437;DHT22;27178;49.460;10.850;2022-11-10T05:24:07;13.00;85.10
41437;DHT22;27178;49.460;10.850;2022-11-10T05:26:36;13.00;85.90
41437;DHT22;27178;49.460;10.850;2022-11-10T05:29:04;12.90;84.90
41437;DHT22;27178;49.460;10.850;2022-11-10T05:31:33;12.90;85.00
41437;DHT22;27178;49.460;10.850;2022-11-10T05:34:01;12.90;85.10
41437;DHT22;27178;49.460;10.850;2022-11-10T05:36:30;12.90;85.40
41437;DHT22;27178;49.460;10.850;2022-11-10T05:38:58;12.90;85.50
41437;DHT22;27178;49.460;10.850;2022-11-10T05:41:26;12.80;85.40
41437;DHT22;27178;49.460;10.850;2022-11-10T05:43:56;12.80;85.40
41437;DHT22;27178;49.460;10.850;2022-11-10T05:46:24;12.80;85.40
41437;DHT22;27178;49.460;10.850;2022-11-10T05:48:52;12.80;85.50
41437;DHT22;27178;49.460;10.850;2022-11-10T05:51:20;12.80;85.60
41437;DHT22;27178;49.460;10.850;2022-11-10T05:53:49;12.70;85.70
41437;DHT22;27178;49.460;10.850;2022-11-10T05:56:17;12.70;85.30
41437;DHT22;27178;49.460;10.850;2022-11-10T05:58:46;12.70;85.40
41437;DHT22;27178;49.460;10.850;2022-11-10T06:01:16;12.70;85.50
41437;DHT22;27178;49.460;10.850;2022-11-10T06:03:44;12.70;85.20
41437;DHT22;27178;49.460;10.850;2022-11-10T06:06:12;12.70;85.30
41437;DHT22;27178;49.460;10.850;2022-11-10T06:08:41;12.60;85.40
41437;DHT22;27178;49.460;10.850;2022-11-10T06:11:09;12.60;85.30
41437;DHT22;27178;49.460;10.850;2022-11-10T06:13:38;12.60;85.50
41437;DHT22;27178;49.460;10.850;2022-11-10T06:16:07;12.60;85.70
41437;DHT22;27178;49.460;10.850;2022-11-10T06:18:37;12.50;85.60
41437;DHT22;27178;49.460;10.850;2022-11-10T06:21:05;12.50;85.60
41437;DHT22;27178;49.460;10.850;2022-11-10T06:23:33;12.50;85.50
41437;DHT22;27178;49.460;10.850;2022-11-10T06:26:02;12.50;85.20
41437;DHT22;27178;49.460;10.850;2022-11-10T06:28:30;12.40;85.10
41437;DHT22;27178;49.460;10.850;2022-11-10T06:30:59;12.40;85.10
41437;DHT22;27178;49.460;10.850;2022-11-10T06:33:27;12.40;85.10
41437;DHT22;27178;49.460;10.850;2022-11-10T06:35:57;12.40;85.30
41437;DHT22;27178;49.460;10.850;2022-11-10T06:38:25;12.40;85.20
41437;DHT22;27178;49.460;10.850;2022-11-10T06:40:54;12.30;85.10
41437;DHT22;27178;49.460;10.850;2022-11-10T06:43:22;12.30;85.20
41437;DHT22;27178;49.460;10.850;2022-11-10T06:45:51;12.30;85.30
41437;DHT22;27178;49.460;10.850;2022-11-10T06:48:19;12.30;85.40
41437;DHT22;27178;49.460;10.850;2022-11-10T06:50:47;12.20;85.40
41437;DHT22;27178;49.460;10.850;2022-11-10T06:53:17;12.30;85.50
41437;DHT22;27178;49.460;10.850;2022-11-10T06:55:52;12.20;85.50
41437;DHT22;27178;49.460;10.850;2022-11-10T06:58:20;12.20;85.60
41437;DHT22;27178;49.460;10.850;2022-11-10T07:00:48;12.20;85.80
41437;DHT22;27178;49.460;10.850;2022-11-10T07:03:17;12.20;85.90
41437;DHT22;27178;49.460;10.850;2022-11-10T07:05:46;12.20;85.90
41437;DHT22;27178;49.460;10.850;2022-11-10T07:08:15;12.20;85.90
41437;DHT22;27178;49.460;10.850;2022-11-10T07:10:50;12.20;86.30
41437;DHT22;27178;49.460;10.850;2022-11-10T07:13:19;12.20;86.60
41437;DHT22;27178;49.460;10.850;2022-11-10T07:15:48;11.00;85.50
41437;DHT22;27178;49.460;10.850;2022-11-10T07:18:17;12.20;86.10
41437;DHT22;27178;49.460;10.850;2022-11-10T07:20:45;12.30;86.10
41437;DHT22;27178;49.460;10.850;2022-11-10T07:23:13;12.20;86.00
41437;DHT22;27178;49.460;10.850;2022-11-10T07:25:43;12.20;85.90
41437;DHT22;27178;49.460;10.850;2022-11-10T07:28:11;12.30;86.30
41437;DHT22;27178;49.460;10.850;2022-11-10T07:30:39;12.30;86.40
41437;DHT22;27178;49.460;10.850;2022-11-10T07:33:10;12.30;86.30
41437;DHT22;27178;49.460;10.850;2022-11-10T07:35:39;12.30;86.60
41437;DHT22;27178;49.460;10.850;2022-11-10T07:38:10;12.30;86.60
41437;DHT22;27178;49.460;10.850;2022-11-10T07:40:38;12.40;86.90
41437;DHT22;27178;49.460;10.850;2022-11-10T07:43:08;12.30;87.90
41437;DHT22;27178;49.460;10.850;2022-11-10T07:45:36;12.30;87.00
41437;DHT22;27178;49.460;10.850;2022-11-10T07:48:06;12.40;87.20
41437;DHT22;27178;49.460;10.850;2022-11-10T07:50:35;12.50;87.50
41437;DHT22;27178;49.460;10.850;2022-11-10T07:53:05;12.50;87.50
41437;DHT22;27178;49.460;10.850;2022-11-10T07:55:35;12.50;87.50
41437;DHT22;27178;49.460;10.850;2022-11-10T07:58:04;12.50;88.40
41437;DHT22;27178;49.460;10.850;2022-11-10T08:00:35;12.60;87.70
41437;DHT22;27178;49.460;10.850;2022-11-10T08:03:06;12.60;87.70
41437;DHT22;27178;49.460;10.850;2022-11-10T08:05:34;12.70;87.80
41437;DHT22;27178;49.460;10.850;2022-11-10T08:08:03;12.70;87.90
41437;DHT22;27178;49.460;10.850;2022-11-10T08:10:33;12.80;88.00
41437;DHT22;27178;49.460;10.850;2022-11-10T08:13:03;12.80;88.10
41437;DHT22;27178;49.460;10.850;2022-11-10T08:15:34;12.90;88.20
41437;DHT22;27178;49.460;10.850;2022-11-10T08:18:04;12.90;88.40
41437;DHT22;27178;49.460;10.850;2022-11-10T08:20:33;13.00;88.40
41437;DHT22;27178;49.460;10.850;2022-11-10T08:23:03;13.00;88.30
41437;DHT22;27178;49.460;10.850;2022-11-10T08:25:32;13.10;88.50
41437;DHT22;27178;49.460;10.850;2022-11-10T08:28:03;13.10;88.40
41437;DHT22;27178;49.460;10.850;2022-11-10T08:30:33;13.20;88.30
41437;DHT22;27178;49.460;10.850;2022-11-10T08:33:06;13.20;88.20
41437;DHT22;27178;49.460;10.850;2022-11-10T08:35:36;13.30;88.00
41437;DHT22;27178;49.460;10.850;2022-11-10T08:38:06;13.30;87.90
41437;DHT22;27178;49.460;10.850;2022-11-10T08:40:36;13.40;88.00
41437;DHT22;27178;49.460;10.850;2022-11-10T08:43:05;13.40;87.80
41437;DHT22;27178;49.460;10.850;2022-11-10T08:45:36;13.40;87.80
41437;DHT22;27178;49.460;10.850;2022-11-10T08:48:06;13.40;87.80
41437;DHT22;27178;49.460;10.850;2022-11-10T08:50:35;13.40;87.80
41437;DHT22;27178;49.460;10.850;2022-11-10T08:53:05;13.40;87.60
41437;DHT22;27178;49.460;10.850;2022-11-10T08:55:34;13.50;87.60
41437;DHT22;27178;49.460;10.850;2022-11-10T08:58:04;13.50;87.60
41437;DHT22;27178;49.460;10.850;2022-11-10T09:00:32;13.50;87.60
41437;DHT22;27178;49.460;10.850;2022-11-10T09:03:07;13.50;87.40
41437;DHT22;27178;49.460;10.850;2022-11-10T09:05:36;13.50;87.40
41437;DHT22;27178;49.460;10.850;2022-11-10T09:08:05;13.50;87.30
41437;DHT22;27178;49.460;10.850;2022-11-10T09:10:34;13.50;87.30
41437;DHT22;27178;49.460;10.850;2022-11-10T09:13:03;13.60;87.30
41437;DHT22;27178;49.460;10.850;2022-11-10T09:15:33;13.60;87.30
41437;DHT22;27178;49.460;10.850;2022-11-10T09:18:05;13.60;87.30
41437;DHT22;27178;49.460;10.850;2022-11-10T09:20:34;13.60;87.30
41437;DHT22;27178;49.460;10.850;2022-11-10T09:23:04;13.60;87.30
41437;DHT22;27178;49.460;10.850;2022-11-10T09:25:33;13.60;87.40
41437;DHT22;27178;49.460;10.850;2022-11-10T09:28:01;13.50;87.30
41437;DHT22;27178;49.460;10.850;2022-11-10T09:30:30;13.60;87.50
41437;DHT22;27178;49.460;10.850;2022-11-10T09:32:59;13.60;87.60
41437;DHT22;27178;49.460;10.850;2022-11-10T09:35:28;13.60;87.60
41437;DHT22;27178;49.460;10.850;2022-11-10T09:37:57;13.60;87.60
41437;DHT22;27178;49.460;10.850;2022-11-10T09:40:30;13.60;87.70
41437;DHT22;27178;49.460;10.850;2022-11-10T09:43:02;13.70;87.80
41437;DHT22;27178;49.460;10.850;2022-11-10T09:45:32;13.70;87.80
41437;DHT22;27178;49.460;10.850;2022-11-10T09:48:10;13.70;87.80
41437;DHT22;27178;49.460;10.850;2022-11-10T09:50:45;13.80;87.80
41437;DHT22;27178;49.460;10.850;2022-11-10T09:53:18;13.80;87.80
41437;DHT22;27178;49.460;10.850;2022-11-10T09:55:50;13.90;87.70
41437;DHT22;27178;49.460;10.850;2022-11-10T09:58:24;13.90;87.60
41437;DHT22;27178;49.460;10.850;2022-11-10T10:01:01;14.00;87.70
41437;DHT22;27178;49.460;10.850;2022-11-10T10:03:31;14.10;87.70
41437;DHT22;27178;49.460;10.850;2022-11-10T10:06:06;14.10;87.60
41437;DHT22;27178;49.460;10.850;2022-11-10T10:08:48;14.20;87.40
41437;DHT22;27178;49.460;10.850;2022-11-10T10:11:32;14.30;87.30
41437;DHT22;27178;49.460;10.850;2022-11-10T10:14:16;14.30;86.70
41437;DHT22;27178;49.460;10.850;2022-11-10T10:16:56;14.40;86.70
41437;DHT22;27178;49.460;10.850;2022-11-10T10:19:30;14.40;86.70
41437;DHT22;27178;49.460;10.850;2022-11-10T10:25:00;14.50;86.30
41437;DHT22;27178;49.460;10.850;2022-11-10T10:27:31;14.50;86.20
41437;DHT22;27178;49.460;10.850;2022-11-10T10:58:53;14.60;85.30
41437;DHT22;27178;49.460;10.850;2022-11-10T11:01:28;14.40;87.60
41437;DHT22;27178;49.460;10.850;2022-11-10T11:03:58;14.60;86.90
41437;DHT22;27178;49.460;10.850;2022-11-10T11:06:27;14.90;86.30
41437;DHT22;27178;49.460;10.850;2022-11-10T11:08:59;15.00;85.60
41437;DHT22;27178;49.460;10.850;2022-11-10T11:11:29;15.20;85.10
41437;DHT22;27178;49.460;10.850;2022-11-10T11:14:16;15.30;84.60
41437;DHT22;27178;49.460;10.850;2022-11-10T11:16:48;15.40;83.80
41437;DHT22;27178;49.460;10.850;2022-11-10T11:19:19;15.50;83.80
41437;DHT22;27178;49.460;10.850;2022-11-10T11:22:24;15.60;83.50
41437;DHT22;27178;49.460;10.850;2022-11-10T11:25:03;15.70;82.80
41437;DHT22;27178;49.460;10.850;2022-11-10T11:27:40;15.80;83.10
41437;DHT22;27178;49.460;10.850;2022-11-10T11:30:19;15.80;82.80
41437;DHT22;27178;49.460;10.850;2022-11-10T11:33:10;15.90;82.50
41437;DHT22;27178;49.460;10.850;2022-11-10T11:35:45;16.00;82.00
41437;DHT22;27178;49.460;10.850;2022-11-10T11:38:17;16.00;82.50
41437;DHT22;27178;49.460;10.850;2022-11-10T11:40:55;16.10;82.40
41437;DHT22;27178;49.460;10.850;2022-11-10T11:44:04;16.20;81.50
41437;DHT22;27178;49.460;10.850;2022-11-10T11:46:39;16.20;80.70
41437;DHT22;27178;49.460;10.850;2022-11-10T11:49:40;16.30;81.00
41437;DHT22;27178;49.460;10.850;2022-11-10T11:52:21;16.40;80.50
41437;DHT22;27178;49.460;10.850;2022-11-10T11:58:02;16.60;79.40
41437;DHT22;27178;49.460;10.850;2022-11-10T12:00:39;16.70;79.80
41437;DHT22;27178;49.460;10.850;2022-11-10T12:03:33;16.70;80.30
41437;DHT22;27178;49.460;10.850;2022-11-10T12:06:20;16.90;78.60
41437;DHT22;27178;49.460;10.850;2022-11-10T12:08:57;17.00;78.70
41437;DHT22;27178;49.460;10.850;2022-11-10T12:11:36;17.10;78.60
41437;DHT22;27178;49.460;10.850;2022-11-10T12:14:16;17.20;78.60
41437;DHT22;27178;49.460;10.850;2022-11-10T12:16:56;17.30;79.00
41437;DHT22;27178;49.460;10.850;2022-11-10T12:19:33;17.30;79.10
41437;DHT22;27178;49.460;10.850;2022-11-10T12:22:09;17.50;79.30
41437;DHT22;27178;49.460;10.850;2022-11-10T12:24:49;17.60;78.80
41437;DHT22;27178;49.460;10.850;2022-11-10T12:27:25;17.80;78.20
41437;DHT22;27178;49.460;10.850;2022-11-10T12:30:00;18.00;78.50
41437;DHT22;27178;49.460;10.850;2022-11-10T12:32:33;18.20;78.40
41437;DHT22;27178;49.460;10.850;2022-11-10T12:35:10;18.30;78.00
41437;DHT22;27178;49.460;10.850;2022-11-10T12:37:43;18.50;76.90
41437;DHT22;27178;49.460;10.850;2022-11-10T12:40:15;18.70;76.60
41437;DHT22;27178;49.460;10.850;2022-11-10T12:42:46;18.80;76.00
41437;DHT22;27178;49.460;10.850;2022-11-10T12:45:20;19.00;74.20
41437;DHT22;27178;49.460;10.850;2022-11-10T12:47:50;19.10;73.80
41437;DHT22;27178;49.460;10.850;2022-11-10T12:50:31;19.20;73.40
41437;DHT22;27178;49.460;10.850;2022-11-10T12:53:07;19.20;71.90
41437;DHT22;27178;49.460;10.850;2022-11-10T12:55:41;19.40;72.40
41437;DHT22;27178;49.460;10.850;2022-11-10T12:58:11;19.40;71.60
41437;DHT22;27178;49.460;10.850;2022-11-10T13:00:42;19.50;72.20
41437;DHT22;27178;49.460;10.850;2022-11-10T13:03:24;19.50;71.10
41437;DHT22;27178;49.460;10.850;2022-11-10T13:05:59;19.50;70.40
41437;DHT22;27178;49.460;10.850;2022-11-10T13:08:31;19.60;70.70
41437;DHT22;27178;49.460;10.850;2022-11-10T13:11:03;19.70;70.50
41437;DHT22;27178;49.460;10.850;2022-11-10T13:13:44;19.80;70.60
41437;DHT22;27178;49.460;10.850;2022-11-10T13:16:49;19.90;68.50
41437;DHT22;27178;49.460;10.850;2022-11-10T13:19:48;20.00;67.90
41437;DHT22;27178;49.460;10.850;2022-11-10T13:22:30;20.20;69.80
41437;DHT22;27178;49.460;10.850;2022-11-10T13:28:07;20.50;69.00
41437;DHT22;27178;49.460;10.850;2022-11-10T13:30:37;20.70;69.60
41437;DHT22;27178;49.460;10.850;2022-11-10T13:36:36;20.90;66.50
41437;DHT22;27178;49.460;10.850;2022-11-10T13:39:24;21.00;67.10
41437;DHT22;27178;49.460;10.850;2022-11-10T13:42:01;21.10;64.70
41437;DHT22;27178;49.460;10.850;2022-11-10T13:44:31;21.10;65.00
41437;DHT22;27178;49.460;10.850;2022-11-10T13:47:19;21.00;65.60
41437;DHT22;27178;49.460;10.850;2022-11-10T13:50:12;21.00;63.90
41437;DHT22;27178;49.460;10.850;2022-11-10T13:52:55;21.00;64.80
41437;DHT22;27178;49.460;10.850;2022-11-10T13:55:45;21.00;64.00
41437;DHT22;27178;49.460;10.850;2022-11-10T13:58:20;21.10;64.50
41437;DHT22;27178;49.460;10.850;2022-11-10T14:01:22;21.10;64.60
41437;DHT22;27178;49.460;10.850;2022-11-10T14:03:56;21.20;63.90
41437;DHT22;27178;49.460;10.850;2022-11-10T14:06:29;21.30;64.80
41437;DHT22;27178;49.460;10.850;2022-11-10T14:09:16;21.40;64.50
41437;DHT22;27178;49.460;10.850;2022-11-10T14:11:51;21.50;63.90
41437;DHT22;27178;49.460;10.850;2022-11-10T14:14:24;21.60;64.40
41437;DHT22;27178;49.460;10.850;2022-11-10T14:16:54;21.70;64.30
41437;DHT22;27178;49.460;10.850;2022-11-10T14:19:30;21.70;64.50
41437;DHT22;27178;49.460;10.850;2022-11-10T14:22:02;21.80;64.20
41437;DHT22;27178;49.460;10.850;2022-11-10T14:24:38;21.90;63.90
41437;DHT22;27178;49.460;10.850;2022-11-10T14:27:14;21.80;63.60
41437;DHT22;27178;49.460;10.850;2022-11-10T14:29:47;21.80;62.50
41437;DHT22;27178;49.460;10.850;2022-11-10T14:32:19;21.60;62.10
41437;DHT22;27178;49.460;10.850;2022-11-10T14:34:50;21.30;62.10
41437;DHT22;27178;49.460;10.850;2022-11-10T14:37:21;21.10;62.30
41437;DHT22;27178;49.460;10.850;2022-11-10T14:39:52;20.90;62.50
41437;DHT22;27178;49.460;10.850;2022-11-10T14:42:24;20.60;62.20
41437;DHT22;27178;49.460;10.850;2022-11-10T14:45:13;20.40;62.90
41437;DHT22;27178;49.460;10.850;2022-11-10T14:47:42;20.20;62.70
41437;DHT22;27178;49.460;10.850;2022-11-10T14:50:16;20.00;63.80
41437;DHT22;27178;49.460;10.850;2022-11-10T14:52:48;19.70;63.60
41437;DHT22;27178;49.460;10.850;2022-11-10T14:55:20;19.50;63.90
41437;DHT22;27178;49.460;10.850;2022-11-10T14:57:55;19.30;64.20
41437;DHT22;27178;49.460;10.850;2022-11-10T15:00:26;19.20;63.80
41437;DHT22;27178;49.460;10.850;2022-11-10T15:02:56;19.00;64.60
41437;DHT22;27178;49.460;10.850;2022-11-10T15:05:25;18.80;64.70
41437;DHT22;27178;49.460;10.850;2022-11-10T15:07:54;18.60;65.00
41437;DHT22;27178;49.460;10.850;2022-11-10T15:10:25;18.50;65.30
41437;DHT22;27178;49.460;10.850;2022-11-10T15:13:00;18.30;65.30
41437;DHT22;27178;49.460;10.850;2022-11-10T15:15:29;18.20;65.20
41437;DHT22;27178;49.460;10.850;2022-11-10T15:17:57;18.00;65.70
41437;DHT22;27178;49.460;10.850;2022-11-10T15:20:31;17.90;66.00
41437;DHT22;27178;49.460;10.850;2022-11-10T15:23:02;17.70;65.90
41437;DHT22;27178;49.460;10.850;2022-11-10T15:25:33;17.60;66.30
41437;DHT22;27178;49.460;10.850;2022-11-10T15:28:17;17.50;66.70
41437;DHT22;27178;49.460;10.850;2022-11-10T15:30:51;17.30;66.70
41437;DHT22;27178;49.460;10.850;2022-11-10T15:33:24;17.30;67.50
41437;DHT22;27178;49.460;10.850;2022-11-10T15:35:54;17.10;67.10
41437;DHT22;27178;49.460;10.850;2022-11-10T15:38:26;17.00;67.30
41437;DHT22;27178;49.460;10.850;2022-11-10T15:41:14;16.90;67.80
41437;DHT22;27178;49.460;10.850;2022-11-10T15:43:44;16.90;67.60
41437;DHT22;27178;49.460;10.850;2022-11-10T15:46:14;16.80;67.90
41437;DHT22;27178;49.460;10.850;2022-11-10T15:48:45;16.70;68.10
41437;DHT22;27178;49.460;10.850;2022-11-10T15:51:16;16.60;68.10
41437;DHT22;27178;49.460;10.850;2022-11-10T15:53:52;16.50;68.40
41437;DHT22;27178;49.460;10.850;2022-11-10T15:56:22;16.50;68.50
41437;DHT22;27178;49.460;10.850;2022-11-10T15:58:52;16.40;69.00
41437;DHT22;27178;49.460;10.850;2022-11-10T16:01:28;16.40;69.10
41437;DHT22;27178;49.460;10.850;2022-11-10T16:03:57;16.30;69.80
41437;DHT22;27178;49.460;10.850;2022-11-10T16:06:25;16.20;68.80
41437;DHT22;27178;49.460;10.850;2022-11-10T16:08:56;16.20;68.90
41437;DHT22;27178;49.460;10.850;2022-11-10T16:11:24;16.10;69.00
41437;DHT22;27178;49.460;10.850;2022-11-10T16:13:54;16.10;69.00
41437;DHT22;27178;49.460;10.850;2022-11-10T16:16:23;16.00;69.00
41437;DHT22;27178;49.460;10.850;2022-11-10T16:18:51;16.00;69.20
41437;DHT22;27178;49.460;10.850;2022-11-10T16:21:21;15.90;69.40
41437;DHT22;27178;49.460;10.850;2022-11-10T16:23:51;15.80;69.60
41437;DHT22;27178;49.460;10.850;2022-11-10T16:26:21;15.80;69.70